PABE/BET METAR and TAF weather

Enter ICAO airport designator
Station Type Date Time Source
PABE METAR 2021/04/13 22:53 UTC NOAA

PABE 132253Z 17017KT 10SM BKN007 BKN029 00/M01 A2978 RMK AO2 UPB04E05RAB05E19SNE04 SLP086 T00001006 PNO $


Station Type Date Time Source
PABE Decoded METAR 2021/04/13 22:53 UTC NOAA

BETHEL AIRPORT, AK, United States (PABE) 60-47N 161-50W 46M
Apr 13, 2021 - 06:53 PM EDT / 2021.04.13 2253 UTC
Wind: from the S (170 degrees) at 20 MPH (17 KT):0
Visibility: 10 mile(s):0
Sky conditions: mostly cloudy
Temperature: 32.0 F (0.0 C)
Windchill: 19 F (-7 C):1
Dew Point: 30.9 F (-0.6 C)
Relative Humidity: 95%
Pressure (altimeter): 29.78 in. Hg (1008 hPa)
ob: PABE 132253Z 17017KT 10SM BKN007 BKN029 00/M01 A2978 RMK AO2 UPB04E05RAB05E19SNE04 SLP086 T00001006 PNO
cycle: 23

Station Type Date Time Source
PABE TAF 2021/04/13 18:42 UTC NOAA

TAF PABE 131739Z 1318/1418 12007KT 3SM -SN BR OVC008
TEMPO 1318/1322 6SM -SN SCT008 OVC015
FM132200 16009KT 6SM -SN BR OVC020
FM140000 16007KT P6SM -SHSN SCT020 BKN040
FM140800 18004KT P6SM OVC007

Example: see airport list